sensor_id;sensor_type;location;lat;lon;timestamp;P1;durP1;ratioP1;P2;durP2;ratioP2
79566;SDS011;69030;48.126;7.816;2023-12-07T00:00:53;18.48;;;9.75;;
79566;SDS011;69030;48.126;7.816;2023-12-07T00:03:19;16.45;;;8.23;;
79566;SDS011;69030;48.126;7.816;2023-12-07T00:05:44;13.02;;;7.88;;
79566;SDS011;69030;48.126;7.816;2023-12-07T00:08:10;16.77;;;7.80;;
79566;SDS011;69030;48.126;7.816;2023-12-07T00:10:36;10.40;;;6.70;;
79566;SDS011;69030;48.126;7.816;2023-12-07T00:13:02;13.20;;;7.20;;
79566;SDS011;69030;48.126;7.816;2023-12-07T00:15:27;13.93;;;7.90;;
79566;SDS011;69030;48.126;7.816;2023-12-07T00:17:54;18.77;;;9.45;;
79566;SDS011;69030;48.126;7.816;2023-12-07T00:20:21;14.00;;;7.03;;
79566;SDS011;69030;48.126;7.816;2023-12-07T00:22:46;13.07;;;6.32;;
79566;SDS011;69030;48.126;7.816;2023-12-07T00:25:12;13.15;;;6.80;;
79566;SDS011;69030;48.126;7.816;2023-12-07T00:27:37;11.25;;;6.07;;
79566;SDS011;69030;48.126;7.816;2023-12-07T00:30:03;12.02;;;6.95;;
79566;SDS011;69030;48.126;7.816;2023-12-07T00:32:29;11.15;;;7.47;;
79566;SDS011;69030;48.126;7.816;2023-12-07T00:34:54;10.68;;;6.50;;
79566;SDS011;69030;48.126;7.816;2023-12-07T00:37:22;15.02;;;7.20;;
79566;SDS011;69030;48.126;7.816;2023-12-07T00:39:47;14.80;;;6.57;;
79566;SDS011;69030;48.126;7.816;2023-12-07T00:42:12;12.80;;;6.15;;
79566;SDS011;69030;48.126;7.816;2023-12-07T00:44:39;14.10;;;6.65;;
79566;SDS011;69030;48.126;7.816;2023-12-07T00:47:07;11.48;;;5.93;;
79566;SDS011;69030;48.126;7.816;2023-12-07T00:49:32;13.55;;;6.68;;
79566;SDS011;69030;48.126;7.816;2023-12-07T00:51:58;12.38;;;6.38;;
79566;SDS011;69030;48.126;7.816;2023-12-07T00:54:23;11.13;;;6.20;;
79566;SDS011;69030;48.126;7.816;2023-12-07T00:56:49;12.63;;;5.90;;
79566;SDS011;69030;48.126;7.816;2023-12-07T00:59:14;11.13;;;5.70;;
79566;SDS011;69030;48.126;7.816;2023-12-07T01:01:39;11.20;;;5.03;;
79566;SDS011;69030;48.126;7.816;2023-12-07T01:04:05;11.75;;;5.57;;
79566;SDS011;69030;48.126;7.816;2023-12-07T01:06:31;11.00;;;7.03;;
79566;SDS011;69030;48.126;7.816;2023-12-07T01:08:56;22.80;;;10.57;;
79566;SDS011;69030;48.126;7.816;2023-12-07T01:11:22;24.13;;;10.32;;
79566;SDS011;69030;48.126;7.816;2023-12-07T01:13:47;19.70;;;8.60;;
79566;SDS011;69030;48.126;7.816;2023-12-07T01:16:13;17.40;;;8.65;;
79566;SDS011;69030;48.126;7.816;2023-12-07T01:18:38;15.70;;;6.63;;
79566;SDS011;69030;48.126;7.816;2023-12-07T01:21:03;13.43;;;7.03;;
79566;SDS011;69030;48.126;7.816;2023-12-07T01:23:29;10.73;;;5.63;;
79566;SDS011;69030;48.126;7.816;2023-12-07T01:25:54;7.78;;;4.82;;
79566;SDS011;69030;48.126;7.816;2023-12-07T01:28:20;10.40;;;6.07;;
79566;SDS011;69030;48.126;7.816;2023-12-07T01:30:45;22.45;;;11.63;;
79566;SDS011;69030;48.126;7.816;2023-12-07T01:33:10;27.23;;;11.43;;
79566;SDS011;69030;48.126;7.816;2023-12-07T01:35:36;17.10;;;8.20;;
79566;SDS011;69030;48.126;7.816;2023-12-07T01:38:01;16.20;;;7.55;;
79566;SDS011;69030;48.126;7.816;2023-12-07T01:40:26;10.63;;;6.00;;
79566;SDS011;69030;48.126;7.816;2023-12-07T01:42:52;9.95;;;5.68;;
79566;SDS011;69030;48.126;7.816;2023-12-07T01:45:19;10.57;;;5.65;;
79566;SDS011;69030;48.126;7.816;2023-12-07T01:47:44;8.63;;;5.10;;
79566;SDS011;69030;48.126;7.816;2023-12-07T01:50:11;10.15;;;5.38;;
79566;SDS011;69030;48.126;7.816;2023-12-07T01:52:43;7.70;;;5.80;;
79566;SDS011;69030;48.126;7.816;2023-12-07T01:55:11;9.40;;;5.47;;
79566;SDS011;69030;48.126;7.816;2023-12-07T01:57:37;17.80;;;5.75;;
79566;SDS011;69030;48.126;7.816;2023-12-07T02:00:03;11.35;;;5.90;;
79566;SDS011;69030;48.126;7.816;2023-12-07T02:02:29;11.85;;;5.65;;
79566;SDS011;69030;48.126;7.816;2023-12-07T02:04:56;9.98;;;5.75;;
79566;SDS011;69030;48.126;7.816;2023-12-07T02:07:22;10.85;;;6.55;;
79566;SDS011;69030;48.126;7.816;2023-12-07T02:09:49;8.63;;;5.20;;
79566;SDS011;69030;48.126;7.816;2023-12-07T02:12:15;9.00;;;4.78;;
79566;SDS011;69030;48.126;7.816;2023-12-07T02:14:41;11.52;;;5.50;;
79566;SDS011;69030;48.126;7.816;2023-12-07T02:17:14;7.97;;;3.60;;
79566;SDS011;69030;48.126;7.816;2023-12-07T02:19:49;8.43;;;4.38;;
79566;SDS011;69030;48.126;7.816;2023-12-07T02:22:38;9.38;;;4.97;;
79566;SDS011;69030;48.126;7.816;2023-12-07T02:25:13;9.23;;;4.95;;
79566;SDS011;69030;48.126;7.816;2023-12-07T02:27:40;10.80;;;5.07;;
79566;SDS011;69030;48.126;7.816;2023-12-07T02:30:12;10.68;;;4.95;;
79566;SDS011;69030;48.126;7.816;2023-12-07T02:32:38;9.85;;;4.53;;
79566;SDS011;69030;48.126;7.816;2023-12-07T02:35:07;8.02;;;4.97;;
79566;SDS011;69030;48.126;7.816;2023-12-07T02:37:46;9.75;;;5.00;;
79566;SDS011;69030;48.126;7.816;2023-12-07T02:40:14;13.63;;;6.47;;
79566;SDS011;69030;48.126;7.816;2023-12-07T02:42:42;14.02;;;6.43;;
79566;SDS011;69030;48.126;7.816;2023-12-07T02:45:08;13.90;;;6.75;;
79566;SDS011;69030;48.126;7.816;2023-12-07T02:47:35;12.98;;;5.97;;
79566;SDS011;69030;48.126;7.816;2023-12-07T02:50:00;10.63;;;5.53;;
79566;SDS011;69030;48.126;7.816;2023-12-07T02:52:27;11.60;;;6.68;;
79566;SDS011;69030;48.126;7.816;2023-12-07T02:54:54;11.65;;;6.35;;
79566;SDS011;69030;48.126;7.816;2023-12-07T02:57:20;9.73;;;5.45;;
79566;SDS011;69030;48.126;7.816;2023-12-07T02:59:46;12.95;;;5.97;;
79566;SDS011;69030;48.126;7.816;2023-12-07T03:02:11;11.23;;;5.50;;
79566;SDS011;69030;48.126;7.816;2023-12-07T03:04:37;11.25;;;6.00;;
79566;SDS011;69030;48.126;7.816;2023-12-07T03:07:02;11.40;;;5.93;;
79566;SDS011;69030;48.126;7.816;2023-12-07T03:09:28;13.88;;;4.97;;
79566;SDS011;69030;48.126;7.816;2023-12-07T03:11:53;11.18;;;5.30;;
79566;SDS011;69030;48.126;7.816;2023-12-07T03:14:18;10.23;;;5.38;;
79566;SDS011;69030;48.126;7.816;2023-12-07T03:16:44;11.30;;;5.38;;
79566;SDS011;69030;48.126;7.816;2023-12-07T03:19:11;8.68;;;4.88;;
79566;SDS011;69030;48.126;7.816;2023-12-07T03:21:39;11.45;;;4.85;;
79566;SDS011;69030;48.126;7.816;2023-12-07T03:24:08;12.13;;;5.18;;
79566;SDS011;69030;48.126;7.816;2023-12-07T03:26:35;7.18;;;4.50;;
79566;SDS011;69030;48.126;7.816;2023-12-07T03:29:00;8.68;;;6.20;;
79566;SDS011;69030;48.126;7.816;2023-12-07T03:31:26;7.90;;;4.85;;
79566;SDS011;69030;48.126;7.816;2023-12-07T03:33:52;9.70;;;5.47;;
79566;SDS011;69030;48.126;7.816;2023-12-07T03:36:18;8.95;;;4.30;;
79566;SDS011;69030;48.126;7.816;2023-12-07T03:38:43;9.65;;;5.25;;
79566;SDS011;69030;48.126;7.816;2023-12-07T03:41:09;11.60;;;4.93;;
79566;SDS011;69030;48.126;7.816;2023-12-07T03:43:34;8.82;;;4.75;;
79566;SDS011;69030;48.126;7.816;2023-12-07T03:45:59;7.68;;;5.35;;
79566;SDS011;69030;48.126;7.816;2023-12-07T03:48:29;10.27;;;5.38;;
79566;SDS011;69030;48.126;7.816;2023-12-07T03:50:54;7.35;;;4.78;;
79566;SDS011;69030;48.126;7.816;2023-12-07T03:53:19;10.85;;;5.32;;
79566;SDS011;69030;48.126;7.816;2023-12-07T03:55:44;10.23;;;4.72;;
79566;SDS011;69030;48.126;7.816;2023-12-07T03:58:10;8.40;;;4.88;;
79566;SDS011;69030;48.126;7.816;2023-12-07T04:03:40;9.57;;;5.10;;
79566;SDS011;69030;48.126;7.816;2023-12-07T04:06:05;8.68;;;4.97;;
79566;SDS011;69030;48.126;7.816;2023-12-07T04:08:31;8.75;;;4.93;;
79566;SDS011;69030;48.126;7.816;2023-12-07T04:10:56;12.52;;;4.97;;
79566;SDS011;69030;48.126;7.816;2023-12-07T04:13:22;8.40;;;5.07;;
79566;SDS011;69030;48.126;7.816;2023-12-07T04:15:48;8.90;;;5.93;;
79566;SDS011;69030;48.126;7.816;2023-12-07T04:18:13;12.80;;;5.75;;
79566;SDS011;69030;48.126;7.816;2023-12-07T04:20:38;9.88;;;5.20;;
79566;SDS011;69030;48.126;7.816;2023-12-07T04:23:05;8.35;;;4.47;;
79566;SDS011;69030;48.126;7.816;2023-12-07T04:25:31;10.35;;;5.65;;
79566;SDS011;69030;48.126;7.816;2023-12-07T04:27:56;12.05;;;5.68;;
79566;SDS011;69030;48.126;7.816;2023-12-07T04:30:22;9.35;;;5.28;;
79566;SDS011;69030;48.126;7.816;2023-12-07T04:32:47;8.43;;;4.75;;
79566;SDS011;69030;48.126;7.816;2023-12-07T04:35:13;7.90;;;4.38;;
79566;SDS011;69030;48.126;7.816;2023-12-07T04:37:39;8.52;;;4.28;;
79566;SDS011;69030;48.126;7.816;2023-12-07T04:40:05;7.57;;;4.65;;
79566;SDS011;69030;48.126;7.816;2023-12-07T04:42:31;9.50;;;5.80;;
79566;SDS011;69030;48.126;7.816;2023-12-07T04:44:56;7.00;;;4.10;;
79566;SDS011;69030;48.126;7.816;2023-12-07T04:47:22;8.23;;;4.75;;
79566;SDS011;69030;48.126;7.816;2023-12-07T04:49:48;8.20;;;3.83;;
79566;SDS011;69030;48.126;7.816;2023-12-07T04:52:14;9.00;;;4.30;;
79566;SDS011;69030;48.126;7.816;2023-12-07T04:54:39;7.18;;;6.47;;
79566;SDS011;69030;48.126;7.816;2023-12-07T04:57:04;5.38;;;3.90;;
79566;SDS011;69030;48.126;7.816;2023-12-07T04:59:30;9.90;;;4.03;;
79566;SDS011;69030;48.126;7.816;2023-12-07T05:01:55;9.38;;;4.85;;
79566;SDS011;69030;48.126;7.816;2023-12-07T05:04:20;7.47;;;4.38;;
79566;SDS011;69030;48.126;7.816;2023-12-07T05:06:46;11.30;;;5.32;;
79566;SDS011;69030;48.126;7.816;2023-12-07T05:09:11;12.38;;;5.70;;
79566;SDS011;69030;48.126;7.816;2023-12-07T05:11:37;15.75;;;6.75;;
79566;SDS011;69030;48.126;7.816;2023-12-07T05:14:02;12.00;;;5.25;;
79566;SDS011;69030;48.126;7.816;2023-12-07T05:16:28;13.30;;;7.68;;
79566;SDS011;69030;48.126;7.816;2023-12-07T05:18:56;11.15;;;6.88;;
79566;SDS011;69030;48.126;7.816;2023-12-07T05:21:21;10.23;;;5.10;;
79566;SDS011;69030;48.126;7.816;2023-12-07T05:23:47;12.45;;;6.53;;
79566;SDS011;69030;48.126;7.816;2023-12-07T05:26:13;12.13;;;7.13;;
79566;SDS011;69030;48.126;7.816;2023-12-07T05:28:38;14.60;;;5.90;;
79566;SDS011;69030;48.126;7.816;2023-12-07T05:31:04;14.68;;;7.53;;
79566;SDS011;69030;48.126;7.816;2023-12-07T05:36:04;17.55;;;7.40;;
79566;SDS011;69030;48.126;7.816;2023-12-07T05:38:30;14.63;;;7.43;;
79566;SDS011;69030;48.126;7.816;2023-12-07T05:40:56;19.35;;;9.77;;
79566;SDS011;69030;48.126;7.816;2023-12-07T05:43:21;23.50;;;10.70;;
79566;SDS011;69030;48.126;7.816;2023-12-07T05:45:46;12.02;;;5.40;;
79566;SDS011;69030;48.126;7.816;2023-12-07T05:48:12;12.07;;;7.13;;
79566;SDS011;69030;48.126;7.816;2023-12-07T05:50:37;13.57;;;7.55;;
79566;SDS011;69030;48.126;7.816;2023-12-07T05:53:04;13.93;;;6.70;;
79566;SDS011;69030;48.126;7.816;2023-12-07T05:55:31;10.43;;;5.47;;
79566;SDS011;69030;48.126;7.816;2023-12-07T05:57:56;13.50;;;6.20;;
79566;SDS011;69030;48.126;7.816;2023-12-07T06:00:23;10.38;;;6.10;;
79566;SDS011;69030;48.126;7.816;2023-12-07T06:02:48;9.88;;;3.95;;
79566;SDS011;69030;48.126;7.816;2023-12-07T06:05:15;10.98;;;5.43;;
79566;SDS011;69030;48.126;7.816;2023-12-07T06:07:42;11.20;;;5.20;;
79566;SDS011;69030;48.126;7.816;2023-12-07T06:10:08;8.05;;;4.90;;
79566;SDS011;69030;48.126;7.816;2023-12-07T06:12:34;11.18;;;6.25;;
79566;SDS011;69030;48.126;7.816;2023-12-07T06:14:59;9.35;;;5.70;;
79566;SDS011;69030;48.126;7.816;2023-12-07T06:17:25;8.85;;;5.28;;
79566;SDS011;69030;48.126;7.816;2023-12-07T06:19:50;12.50;;;6.30;;
79566;SDS011;69030;48.126;7.816;2023-12-07T06:22:16;13.40;;;6.38;;
79566;SDS011;69030;48.126;7.816;2023-12-07T06:27:09;6.78;;;4.50;;
79566;SDS011;69030;48.126;7.816;2023-12-07T06:29:36;10.13;;;6.63;;
79566;SDS011;69030;48.126;7.816;2023-12-07T06:32:02;13.38;;;7.03;;
79566;SDS011;69030;48.126;7.816;2023-12-07T06:34:28;10.50;;;5.97;;
79566;SDS011;69030;48.126;7.816;2023-12-07T06:36:55;10.88;;;5.20;;
79566;SDS011;69030;48.126;7.816;2023-12-07T06:39:20;16.05;;;6.18;;
79566;SDS011;69030;48.126;7.816;2023-12-07T06:41:45;9.63;;;5.55;;
79566;SDS011;69030;48.126;7.816;2023-12-07T06:44:11;17.65;;;5.45;;
79566;SDS011;69030;48.126;7.816;2023-12-07T06:46:36;10.85;;;6.05;;
79566;SDS011;69030;48.126;7.816;2023-12-07T06:49:01;12.95;;;6.70;;
79566;SDS011;69030;48.126;7.816;2023-12-07T06:51:27;13.23;;;6.40;;
79566;SDS011;69030;48.126;7.816;2023-12-07T06:53:52;11.18;;;7.10;;
79566;SDS011;69030;48.126;7.816;2023-12-07T06:56:18;14.40;;;8.27;;
79566;SDS011;69030;48.126;7.816;2023-12-07T06:58:43;11.10;;;6.78;;
79566;SDS011;69030;48.126;7.816;2023-12-07T07:01:09;17.50;;;8.70;;
79566;SDS011;69030;48.126;7.816;2023-12-07T07:03:34;13.05;;;7.65;;
79566;SDS011;69030;48.126;7.816;2023-12-07T07:06:00;14.63;;;8.05;;
79566;SDS011;69030;48.126;7.816;2023-12-07T07:08:26;11.13;;;7.07;;
79566;SDS011;69030;48.126;7.816;2023-12-07T07:10:51;15.80;;;7.07;;
79566;SDS011;69030;48.126;7.816;2023-12-07T07:13:17;17.15;;;9.98;;
79566;SDS011;69030;48.126;7.816;2023-12-07T07:15:44;19.90;;;9.10;;
79566;SDS011;69030;48.126;7.816;2023-12-07T07:18:09;12.90;;;7.65;;
79566;SDS011;69030;48.126;7.816;2023-12-07T07:20:35;12.32;;;7.80;;
79566;SDS011;69030;48.126;7.816;2023-12-07T07:23:00;13.25;;;10.73;;
79566;SDS011;69030;48.126;7.816;2023-12-07T07:25:26;13.75;;;8.32;;
79566;SDS011;69030;48.126;7.816;2023-12-07T07:27:51;11.88;;;5.82;;
79566;SDS011;69030;48.126;7.816;2023-12-07T07:30:19;15.77;;;6.95;;
79566;SDS011;69030;48.126;7.816;2023-12-07T07:32:45;12.45;;;7.35;;
79566;SDS011;69030;48.126;7.816;2023-12-07T07:35:10;17.13;;;10.35;;
79566;SDS011;69030;48.126;7.816;2023-12-07T07:37:37;38.67;;;17.50;;
79566;SDS011;69030;48.126;7.816;2023-12-07T07:40:04;27.30;;;9.25;;
79566;SDS011;69030;48.126;7.816;2023-12-07T07:42:32;20.13;;;7.63;;
79566;SDS011;69030;48.126;7.816;2023-12-07T07:44:58;12.88;;;5.78;;
79566;SDS011;69030;48.126;7.816;2023-12-07T07:47:24;9.23;;;5.95;;
79566;SDS011;69030;48.126;7.816;2023-12-07T07:49:49;13.18;;;8.07;;
79566;SDS011;69030;48.126;7.816;2023-12-07T07:52:15;11.52;;;7.70;;
79566;SDS011;69030;48.126;7.816;2023-12-07T07:54:40;12.82;;;9.52;;
79566;SDS011;69030;48.126;7.816;2023-12-07T07:57:07;19.15;;;9.57;;
79566;SDS011;69030;48.126;7.816;2023-12-07T07:59:32;14.10;;;7.63;;
79566;SDS011;69030;48.126;7.816;2023-12-07T08:01:58;16.92;;;9.05;;
79566;SDS011;69030;48.126;7.816;2023-12-07T08:04:24;15.27;;;10.02;;
79566;SDS011;69030;48.126;7.816;2023-12-07T08:06:49;18.48;;;9.98;;
79566;SDS011;69030;48.126;7.816;2023-12-07T08:09:14;22.55;;;11.43;;
79566;SDS011;69030;48.126;7.816;2023-12-07T08:11:40;24.88;;;12.27;;
79566;SDS011;69030;48.126;7.816;2023-12-07T08:14:06;42.38;;;12.60;;
79566;SDS011;69030;48.126;7.816;2023-12-07T08:16:31;25.63;;;8.18;;
79566;SDS011;69030;48.126;7.816;2023-12-07T08:18:56;47.05;;;11.88;;
79566;SDS011;69030;48.126;7.816;2023-12-07T08:21:23;39.03;;;11.20;;
79566;SDS011;69030;48.126;7.816;2023-12-07T08:23:50;40.08;;;13.18;;
79566;SDS011;69030;48.126;7.816;2023-12-07T08:26:16;25.25;;;9.30;;
79566;SDS011;69030;48.126;7.816;2023-12-07T08:28:42;30.63;;;10.43;;
79566;SDS011;69030;48.126;7.816;2023-12-07T08:31:07;26.95;;;10.68;;
79566;SDS011;69030;48.126;7.816;2023-12-07T08:33:33;26.30;;;8.52;;
79566;SDS011;69030;48.126;7.816;2023-12-07T08:36:04;26.45;;;9.98;;
79566;SDS011;69030;48.126;7.816;2023-12-07T08:38:31;36.60;;;10.40;;
79566;SDS011;69030;48.126;7.816;2023-12-07T08:40:56;43.20;;;13.68;;
79566;SDS011;69030;48.126;7.816;2023-12-07T08:43:23;47.58;;;15.80;;
79566;SDS011;69030;48.126;7.816;2023-12-07T08:45:49;29.92;;;12.20;;
79566;SDS011;69030;48.126;7.816;2023-12-07T08:48:15;35.20;;;14.68;;
79566;SDS011;69030;48.126;7.816;2023-12-07T08:50:41;39.65;;;14.73;;
79566;SDS011;69030;48.126;7.816;2023-12-07T08:53:06;46.67;;;16.48;;
79566;SDS011;69030;48.126;7.816;2023-12-07T08:55:31;41.65;;;16.15;;
79566;SDS011;69030;48.126;7.816;2023-12-07T08:57:57;45.95;;;15.55;;
79566;SDS011;69030;48.126;7.816;2023-12-07T09:00:24;47.67;;;12.57;;
79566;SDS011;69030;48.126;7.816;2023-12-07T09:02:50;39.83;;;15.25;;
79566;SDS011;69030;48.126;7.816;2023-12-07T09:05:17;27.38;;;13.52;;
79566;SDS011;69030;48.126;7.816;2023-12-07T09:07:42;32.95;;;11.65;;
79566;SDS011;69030;48.126;7.816;2023-12-07T09:10:08;32.47;;;13.75;;
79566;SDS011;69030;48.126;7.816;2023-12-07T09:12:34;35.05;;;14.68;;
79566;SDS011;69030;48.126;7.816;2023-12-07T09:15:01;32.83;;;13.80;;
79566;SDS011;69030;48.126;7.816;2023-12-07T09:17:27;34.50;;;18.70;;
79566;SDS011;69030;48.126;7.816;2023-12-07T09:19:52;30.73;;;12.38;;
79566;SDS011;69030;48.126;7.816;2023-12-07T09:22:18;31.02;;;12.73;;
79566;SDS011;69030;48.126;7.816;2023-12-07T09:24:45;38.45;;;15.30;;
79566;SDS011;69030;48.126;7.816;2023-12-07T09:27:11;31.63;;;13.95;;
79566;SDS011;69030;48.126;7.816;2023-12-07T09:29:38;30.58;;;13.85;;
79566;SDS011;69030;48.126;7.816;2023-12-07T09:34:32;29.08;;;13.68;;
79566;SDS011;69030;48.126;7.816;2023-12-07T09:37:07;30.05;;;15.00;;
79566;SDS011;69030;48.126;7.816;2023-12-07T09:39:33;35.78;;;17.45;;
79566;SDS011;69030;48.126;7.816;2023-12-07T09:41:59;39.13;;;19.52;;
79566;SDS011;69030;48.126;7.816;2023-12-07T09:44:25;39.97;;;18.48;;
79566;SDS011;69030;48.126;7.816;2023-12-07T09:46:50;37.38;;;18.33;;
79566;SDS011;69030;48.126;7.816;2023-12-07T09:49:16;34.72;;;16.35;;
79566;SDS011;69030;48.126;7.816;2023-12-07T09:51:42;45.13;;;18.00;;
79566;SDS011;69030;48.126;7.816;2023-12-07T09:54:07;30.83;;;14.77;;
79566;SDS011;69030;48.126;7.816;2023-12-07T09:56:33;28.92;;;14.43;;
79566;SDS011;69030;48.126;7.816;2023-12-07T09:58:58;31.15;;;14.02;;
79566;SDS011;69030;48.126;7.816;2023-12-07T10:01:27;19.95;;;11.15;;
79566;SDS011;69030;48.126;7.816;2023-12-07T10:04:16;14.20;;;8.70;;
79566;SDS011;69030;48.126;7.816;2023-12-07T10:06:42;17.17;;;11.00;;
79566;SDS011;69030;48.126;7.816;2023-12-07T10:09:11;16.65;;;8.60;;
79566;SDS011;69030;48.126;7.816;2023-12-07T10:11:36;16.70;;;8.48;;
79566;SDS011;69030;48.126;7.816;2023-12-07T10:14:03;18.00;;;10.25;;
79566;SDS011;69030;48.126;7.816;2023-12-07T10:16:28;18.30;;;10.60;;
79566;SDS011;69030;48.126;7.816;2023-12-07T10:18:54;29.42;;;9.65;;
79566;SDS011;69030;48.126;7.816;2023-12-07T10:21:31;21.02;;;7.93;;
79566;SDS011;69030;48.126;7.816;2023-12-07T10:23:57;19.40;;;9.93;;
79566;SDS011;69030;48.126;7.816;2023-12-07T10:26:23;21.02;;;9.68;;
79566;SDS011;69030;48.126;7.816;2023-12-07T10:28:51;20.42;;;9.40;;
79566;SDS011;69030;48.126;7.816;2023-12-07T10:31:19;18.20;;;8.82;;
79566;SDS011;69030;48.126;7.816;2023-12-07T10:33:48;24.58;;;9.20;;
79566;SDS011;69030;48.126;7.816;2023-12-07T10:36:14;22.17;;;9.60;;
79566;SDS011;69030;48.126;7.816;2023-12-07T10:38:40;22.42;;;10.90;;
79566;SDS011;69030;48.126;7.816;2023-12-07T10:41:06;19.95;;;9.27;;
79566;SDS011;69030;48.126;7.816;2023-12-07T10:43:42;26.63;;;10.93;;
79566;SDS011;69030;48.126;7.816;2023-12-07T10:46:09;24.48;;;10.95;;
79566;SDS011;69030;48.126;7.816;2023-12-07T10:48:39;21.45;;;9.65;;
79566;SDS011;69030;48.126;7.816;2023-12-07T10:51:06;22.20;;;9.70;;
79566;SDS011;69030;48.126;7.816;2023-12-07T10:53:40;26.13;;;9.52;;
79566;SDS011;69030;48.126;7.816;2023-12-07T10:56:14;25.33;;;11.00;;
79566;SDS011;69030;48.126;7.816;2023-12-07T10:58:42;36.33;;;12.93;;
79566;SDS011;69030;48.126;7.816;2023-12-07T11:01:09;23.92;;;10.80;;
79566;SDS011;69030;48.126;7.816;2023-12-07T11:03:37;22.73;;;11.23;;
79566;SDS011;69030;48.126;7.816;2023-12-07T11:06:03;14.82;;;9.25;;
79566;SDS011;69030;48.126;7.816;2023-12-07T11:11:04;22.15;;;11.35;;
79566;SDS011;69030;48.126;7.816;2023-12-07T11:13:35;20.95;;;10.23;;
79566;SDS011;69030;48.126;7.816;2023-12-07T11:16:02;20.50;;;10.05;;
79566;SDS011;69030;48.126;7.816;2023-12-07T11:18:28;18.83;;;10.32;;
79566;SDS011;69030;48.126;7.816;2023-12-07T11:20:57;20.08;;;10.35;;
79566;SDS011;69030;48.126;7.816;2023-12-07T11:23:23;21.08;;;9.98;;
79566;SDS011;69030;48.126;7.816;2023-12-07T11:25:48;15.25;;;9.77;;
79566;SDS011;69030;48.126;7.816;2023-12-07T11:28:15;18.17;;;10.77;;
79566;SDS011;69030;48.126;7.816;2023-12-07T11:30:44;10.05;;;6.20;;
79566;SDS011;69030;48.126;7.816;2023-12-07T11:33:10;18.05;;;9.43;;
79566;SDS011;69030;48.126;7.816;2023-12-07T11:38:27;23.45;;;12.40;;
79566;SDS011;69030;48.126;7.816;2023-12-07T11:40:54;18.85;;;8.82;;
79566;SDS011;69030;48.126;7.816;2023-12-07T11:46:00;18.00;;;8.85;;
79566;SDS011;69030;48.126;7.816;2023-12-07T11:48:25;18.95;;;10.07;;
79566;SDS011;69030;48.126;7.816;2023-12-07T11:50:57;15.82;;;7.20;;
79566;SDS011;69030;48.126;7.816;2023-12-07T11:55:57;17.17;;;9.93;;
79566;SDS011;69030;48.126;7.816;2023-12-07T11:58:32;17.08;;;8.52;;
79566;SDS011;69030;48.126;7.816;2023-12-07T12:00:58;17.35;;;10.20;;
79566;SDS011;69030;48.126;7.816;2023-12-07T12:03:26;19.50;;;9.25;;
79566;SDS011;69030;48.126;7.816;2023-12-07T12:05:52;19.83;;;10.32;;
79566;SDS011;69030;48.126;7.816;2023-12-07T12:08:19;20.35;;;10.63;;
79566;SDS011;69030;48.126;7.816;2023-12-07T12:10:45;20.58;;;10.23;;
79566;SDS011;69030;48.126;7.816;2023-12-07T12:13:11;16.40;;;7.80;;
79566;SDS011;69030;48.126;7.816;2023-12-07T12:15:40;17.80;;;8.30;;
79566;SDS011;69030;48.126;7.816;2023-12-07T12:18:06;22.67;;;11.30;;
79566;SDS011;69030;48.126;7.816;2023-12-07T12:20:32;17.88;;;7.18;;
79566;SDS011;69030;48.126;7.816;2023-12-07T12:22:58;12.50;;;7.28;;
79566;SDS011;69030;48.126;7.816;2023-12-07T12:25:24;15.00;;;7.55;;
79566;SDS011;69030;48.126;7.816;2023-12-07T12:27:56;25.02;;;12.18;;
79566;SDS011;69030;48.126;7.816;2023-12-07T12:30:23;10.80;;;6.43;;
79566;SDS011;69030;48.126;7.816;2023-12-07T12:32:49;12.95;;;6.90;;
79566;SDS011;69030;48.126;7.816;2023-12-07T12:35:15;18.77;;;9.57;;
79566;SDS011;69030;48.126;7.816;2023-12-07T12:37:41;20.77;;;8.43;;
79566;SDS011;69030;48.126;7.816;2023-12-07T12:40:09;25.40;;;11.77;;
79566;SDS011;69030;48.126;7.816;2023-12-07T12:42:35;14.57;;;7.97;;
79566;SDS011;69030;48.126;7.816;2023-12-07T12:45:13;29.08;;;14.05;;
79566;SDS011;69030;48.126;7.816;2023-12-07T12:47:40;18.45;;;9.52;;
79566;SDS011;69030;48.126;7.816;2023-12-07T12:50:06;18.20;;;7.70;;
79566;SDS011;69030;48.126;7.816;2023-12-07T12:52:33;18.48;;;9.82;;
79566;SDS011;69030;48.126;7.816;2023-12-07T12:54:59;21.88;;;10.10;;
79566;SDS011;69030;48.126;7.816;2023-12-07T12:57:25;20.77;;;9.18;;
79566;SDS011;69030;48.126;7.816;2023-12-07T12:59:52;15.73;;;8.65;;
79566;SDS011;69030;48.126;7.816;2023-12-07T13:02:18;26.08;;;12.65;;
79566;SDS011;69030;48.126;7.816;2023-12-07T13:04:44;17.70;;;8.60;;
79566;SDS011;69030;48.126;7.816;2023-12-07T13:07:11;21.77;;;9.57;;
79566;SDS011;69030;48.126;7.816;2023-12-07T13:09:37;17.63;;;8.85;;
79566;SDS011;69030;48.126;7.816;2023-12-07T13:12:03;24.95;;;11.82;;
79566;SDS011;69030;48.126;7.816;2023-12-07T13:14:29;23.05;;;10.73;;
79566;SDS011;69030;48.126;7.816;2023-12-07T13:16:55;25.63;;;12.02;;
79566;SDS011;69030;48.126;7.816;2023-12-07T13:19:23;18.67;;;10.27;;
79566;SDS011;69030;48.126;7.816;2023-12-07T13:21:50;20.88;;;10.02;;
79566;SDS011;69030;48.126;7.816;2023-12-07T13:24:15;19.52;;;9.35;;
79566;SDS011;69030;48.126;7.816;2023-12-07T13:26:41;19.73;;;8.85;;
79566;SDS011;69030;48.126;7.816;2023-12-07T13:29:06;18.10;;;7.65;;
79566;SDS011;69030;48.126;7.816;2023-12-07T13:31:35;8.35;;;5.90;;
79566;SDS011;69030;48.126;7.816;2023-12-07T13:34:01;17.58;;;8.35;;
79566;SDS011;69030;48.126;7.816;2023-12-07T13:36:26;22.30;;;10.32;;
79566;SDS011;69030;48.126;7.816;2023-12-07T13:41:46;22.10;;;9.82;;
79566;SDS011;69030;48.126;7.816;2023-12-07T13:47:33;18.45;;;8.80;;
79566;SDS011;69030;48.126;7.816;2023-12-07T13:50:03;23.27;;;11.20;;
79566;SDS011;69030;48.126;7.816;2023-12-07T13:52:29;18.73;;;8.48;;
79566;SDS011;69030;48.126;7.816;2023-12-07T13:57:30;20.95;;;10.95;;
79566;SDS011;69030;48.126;7.816;2023-12-07T13:59:57;26.20;;;10.63;;
79566;SDS011;69030;48.126;7.816;2023-12-07T14:02:22;30.92;;;12.45;;
79566;SDS011;69030;48.126;7.816;2023-12-07T14:04:48;29.63;;;13.07;;
79566;SDS011;69030;48.126;7.816;2023-12-07T14:07:15;24.35;;;12.02;;
79566;SDS011;69030;48.126;7.816;2023-12-07T14:09:42;22.90;;;11.35;;
79566;SDS011;69030;48.126;7.816;2023-12-07T14:12:09;21.75;;;13.27;;
79566;SDS011;69030;48.126;7.816;2023-12-07T14:14:36;25.05;;;12.27;;
79566;SDS011;69030;48.126;7.816;2023-12-07T14:17:01;23.13;;;11.68;;
79566;SDS011;69030;48.126;7.816;2023-12-07T14:19:26;22.00;;;12.88;;
79566;SDS011;69030;48.126;7.816;2023-12-07T14:21:53;25.27;;;13.38;;
79566;SDS011;69030;48.126;7.816;2023-12-07T14:24:19;25.77;;;13.02;;
79566;SDS011;69030;48.126;7.816;2023-12-07T14:26:44;29.27;;;12.63;;
79566;SDS011;69030;48.126;7.816;2023-12-07T14:29:13;22.83;;;12.05;;
79566;SDS011;69030;48.126;7.816;2023-12-07T14:31:43;26.25;;;12.40;;
79566;SDS011;69030;48.126;7.816;2023-12-07T14:34:10;26.70;;;12.02;;
79566;SDS011;69030;48.126;7.816;2023-12-07T14:36:36;24.67;;;10.30;;
79566;SDS011;69030;48.126;7.816;2023-12-07T14:39:04;24.92;;;12.75;;
79566;SDS011;69030;48.126;7.816;2023-12-07T14:41:32;24.73;;;11.57;;
79566;SDS011;69030;48.126;7.816;2023-12-07T14:43:58;26.50;;;13.10;;
79566;SDS011;69030;48.126;7.816;2023-12-07T14:46:23;30.95;;;12.98;;
79566;SDS011;69030;48.126;7.816;2023-12-07T14:48:50;33.70;;;15.98;;
79566;SDS011;69030;48.126;7.816;2023-12-07T14:51:19;28.88;;;12.43;;
79566;SDS011;69030;48.126;7.816;2023-12-07T14:53:47;23.02;;;11.13;;
79566;SDS011;69030;48.126;7.816;2023-12-07T14:56:12;17.63;;;9.75;;
79566;SDS011;69030;48.126;7.816;2023-12-07T14:58:38;20.38;;;11.02;;